Time,TemperatureF,DewpointF,PressureIn,WindDirection,WindDirectionDegrees,WindSpeedMPH,WindSpeedGustMPH,Humidity,HourlyPrecipIn,Conditions,Clouds,dailyrainin,SoftwareType,DateUTC
2013-08-10 00:01:00,58.3,52.2,30.02,NW,315,6.3,6.3,80,0.00,,,0.00,WUHU21623XXSP,2013-08-10 05:01:00,
2013-08-10 00:06:00,58.1,52.0,30.02,NW,315,0.0,6.3,80,0.00,,,0.00,WUHU21623XXSP,2013-08-10 05:06:00,
2013-08-10 00:11:00,57.7,51.9,30.02,NNW,337,0.0,5.4,81,0.00,,,0.00,WUHU21623XXSP,2013-08-10 05:11:00,
2013-08-10 00:16:00,57.7,51.9,30.02,NW,315,0.0,6.7,81,0.00,,,0.00,WUHU21623XXSP,2013-08-10 05:16:00,
2013-08-10 00:21:00,57.6,51.9,30.02,NW,315,1.3,6.7,81,0.00,,,0.00,WUHU21623XXSP,2013-08-10 05:21:00,
2013-08-10 00:26:00,57.4,51.6,30.03,NW,315,0.0,4.3,81,0.00,,,0.00,WUHU21623XXSP,2013-08-10 05:26:00,
2013-08-10 00:31:00,57.2,51.8,30.03,NW,314,0.7,2.0,82,0.00,,,0.00,WUHU21623XXSP,2013-08-10 05:31:00,
2013-08-10 00:36:00,57.0,51.6,30.03,NW,315,0.7,2.2,82,0.00,,,0.00,WUHU21623XXSP,2013-08-10 05:36:00,
2013-08-10 00:41:00,57.0,51.6,30.03,NW,317,0.7,2.2,82,0.00,,,0.00,WUHU21623XXSP,2013-08-10 05:41:00,
2013-08-10 00:46:00,57.0,51.6,30.04,NW,320,0.6,2.0,82,0.00,,,0.00,WUHU21623XXSP,2013-08-10 05:46:00,
2013-08-10 00:51:00,56.8,51.7,30.04,NNW,337,0.0,3.4,83,0.00,,,0.00,WUHU21623XXSP,2013-08-10 05:51:00,
2013-08-10 00:56:00,56.8,51.7,30.04,NW,315,0.0,3.4,83,0.00,,,0.00,WUHU21623XXSP,2013-08-10 05:56:00,
2013-08-10 01:01:00,57.0,51.9,30.04,NW,315,0.0,3.1,83,0.00,,,0.00,WUHU21623XXSP,2013-08-10 06:01:00,
2013-08-10 01:06:00,56.8,51.7,30.04,NW,315,0.7,2.7,83,0.00,,,0.00,WUHU21623XXSP,2013-08-10 06:06:00,
2013-08-10 01:11:00,56.8,51.7,30.04,NW,316,0.9,2.7,83,0.00,,,0.00,WUHU21623XXSP,2013-08-10 06:11:00,
2013-08-10 01:16:00,56.8,51.7,30.04,NW,316,0.9,3.6,83,0.00,,,0.00,WUHU21623XXSP,2013-08-10 06:16:00,
2013-08-10 01:21:00,56.7,51.9,30.04,NW,315,0.9,3.6,84,0.00,,,0.00,WUHU21623XXSP,2013-08-10 06:21:00,
2013-08-10 01:26:00,56.5,51.7,30.04,NW,316,0.8,3.8,84,0.00,,,0.00,WUHU21623XXSP,2013-08-10 06:26:00,
2013-08-10 01:31:00,56.5,51.7,30.04,NW,317,0.9,4.3,84,0.00,,,0.00,WUHU21623XXSP,2013-08-10 06:31:00,
2013-08-10 01:36:00,56.3,51.5,30.04,NW,315,0.7,4.3,84,0.00,,,0.00,WUHU21623XXSP,2013-08-10 06:36:00,
2013-08-10 01:41:00,56.1,51.3,30.04,NW,315,0.0,4.3,84,0.00,,,0.00,WUHU21623XXSP,2013-08-10 06:41:00,
2013-08-10 01:46:00,55.9,51.1,30.04,NW,315,1.3,6.0,84,0.00,,,0.00,WUHU21623XXSP,2013-08-10 06:46:00,
2013-08-10 01:51:00,55.9,51.4,30.04,NW,315,0.0,6.0,85,0.00,,,0.00,WUHU21623XXSP,2013-08-10 06:51:00,
2013-08-10 01:56:00,55.8,51.4,30.04,NW,315,0.8,3.1,85,0.00,,,0.00,WUHU21623XXSP,2013-08-10 06:56:00,
2013-08-10 02:01:00,55.6,51.2,30.04,NW,315,0.6,3.1,85,0.00,,,0.00,WUHU21623XXSP,2013-08-10 07:01:00,
2013-08-10 02:09:00,55.0,50.6,30.04,NW,315,0.0,0.7,85,0.00,,,0.00,WUHU21623XXSP,2013-08-10 07:09:00,
2013-08-10 02:14:00,54.5,50.4,30.04,NW,315,0.0,0.2,86,0.00,,,0.00,WUHU21623XXSP,2013-08-10 07:14:00,
2013-08-10 02:19:00,54.3,50.2,30.04,NW,315,0.0,0.7,86,0.00,,,0.00,WUHU21623XXSP,2013-08-10 07:19:00,
2013-08-10 02:24:00,54.0,49.8,30.04,NW,315,0.0,0.7,86,0.00,,,0.00,WUHU21623XXSP,2013-08-10 07:24:00,
2013-08-10 02:29:00,53.8,50.0,30.04,NW,315,0.0,0.0,87,0.00,,,0.00,WUHU21623XXSP,2013-08-10 07:29:00,
2013-08-10 02:34:00,53.8,50.0,30.04,NW,315,0.0,0.0,87,0.00,,,0.00,WUHU21623XXSP,2013-08-10 07:34:00,
2013-08-10 02:39:00,53.8,50.0,30.05,NW,315,0.0,0.0,87,0.00,,,0.00,WUHU21623XXSP,2013-08-10 07:39:00,
2013-08-10 02:44:00,53.8,50.0,30.05,NW,315,0.0,0.0,87,0.00,,,0.00,WUHU21623XXSP,2013-08-10 07:44:00,
2013-08-10 02:49:00,54.0,50.1,30.05,NW,315,0.0,0.0,87,0.00,,,0.00,WUHU21623XXSP,2013-08-10 07:49:00,
2013-08-10 02:54:00,54.0,50.1,30.04,NW,315,0.0,0.0,87,0.00,,,0.00,WUHU21623XXSP,2013-08-10 07:54:00,
2013-08-10 02:59:00,53.8,50.0,30.04,NW,315,0.0,0.0,87,0.00,,,0.00,WUHU21623XXSP,2013-08-10 07:59:00,
2013-08-10 03:04:00,53.8,50.0,30.04,NW,315,0.0,0.0,87,0.00,,,0.00,WUHU21623XXSP,2013-08-10 08:04:00,
2013-08-10 03:10:00,53.8,50.0,30.05,NW,315,0.0,0.0,87,0.00,,,0.00,WUHU21623XXSP,2013-08-10 08:10:00,
2013-08-10 03:15:00,52.9,48.8,30.05,NW,315,0.0,0.0,86,0.00,,,0.00,WUHU21623XXSP,2013-08-10 08:15:00,
2013-08-10 03:20:00,52.3,48.5,30.05,NW,315,0.0,0.0,87,0.00,,,0.00,WUHU21623XXSP,2013-08-10 08:20:00,
2013-08-10 03:25:00,52.3,48.5,30.05,NW,315,0.0,0.0,87,0.00,,,0.00,WUHU21623XXSP,2013-08-10 08:25:00,
2013-08-10 03:30:00,52.0,48.2,30.05,NW,315,0.0,0.0,87,0.00,,,0.00,WUHU21623XXSP,2013-08-10 08:30:00,
2013-08-10 03:35:00,52.2,48.4,30.05,NW,315,0.0,0.0,87,0.00,,,0.00,WUHU21623XXSP,2013-08-10 08:35:00,
2013-08-10 03:40:00,52.3,48.8,30.05,NW,315,0.0,0.0,88,0.00,,,0.00,WUHU21623XXSP,2013-08-10 08:40:00,
2013-08-10 03:45:00,52.5,49.0,30.05,NW,315,0.0,0.0,88,0.00,,,0.00,WUHU21623XXSP,2013-08-10 08:45:00,
2013-08-10 03:50:00,52.3,48.8,30.05,NNW,337,0.0,0.0,88,0.00,,,0.00,WUHU21623XXSP,2013-08-10 08:50:00,
2013-08-10 03:55:00,52.5,49.0,30.05,NW,315,0.0,0.0,88,0.00,,,0.00,WUHU21623XXSP,2013-08-10 08:55:00,
2013-08-10 04:00:00,52.5,49.0,30.05,North,0,0.0,0.0,88,0.00,,,0.00,WUHU21623XXSP,2013-08-10 09:00:00,
2013-08-10 04:05:00,52.5,49.0,30.05,North,0,0.0,0.0,88,0.00,,,0.00,WUHU21623XXSP,2013-08-10 09:05:00,
2013-08-10 04:10:00,52.2,48.7,30.05,NW,315,0.0,0.0,88,0.00,,,0.00,WUHU21623XXSP,2013-08-10 09:10:00,
2013-08-10 04:15:00,52.0,48.5,30.05,NW,315,0.0,0.0,88,0.00,,,0.00,WUHU21623XXSP,2013-08-10 09:15:00,
2013-08-10 04:20:00,52.0,48.2,30.05,NW,315,0.0,0.0,87,0.00,,,0.00,WUHU21623XXSP,2013-08-10 09:20:00,
2013-08-10 04:25:00,51.6,47.8,30.05,NW,315,0.0,0.0,87,0.00,,,0.00,WUHU21623XXSP,2013-08-10 09:25:00,
2013-08-10 04:30:00,51.6,47.8,30.05,NW,315,0.0,0.0,87,0.00,,,0.00,WUHU21623XXSP,2013-08-10 09:30:00,
2013-08-10 04:35:00,51.3,47.5,30.05,NW,315,0.0,0.0,87,0.00,,,0.00,WUHU21623XXSP,2013-08-10 09:35:00,
2013-08-10 04:40:00,51.4,47.6,30.06,NW,315,0.0,0.0,87,0.00,,,0.00,WUHU21623XXSP,2013-08-10 09:40:00,
2013-08-10 04:45:00,51.4,47.9,30.06,NW,315,0.0,0.0,88,0.00,,,0.00,WUHU21623XXSP,2013-08-10 09:45:00,
2013-08-10 04:50:00,51.1,47.6,30.06,North,0,0.0,0.0,88,0.00,,,0.00,WUHU21623XXSP,2013-08-10 09:50:00,
2013-08-10 04:55:00,51.1,47.6,30.06,NW,315,0.0,0.0,88,0.00,,,0.00,WUHU21623XXSP,2013-08-10 09:55:00,
2013-08-10 05:00:00,51.3,47.8,30.06,NW,315,0.0,0.0,88,0.00,,,0.00,WUHU21623XXSP,2013-08-10 10:00:00,
2013-08-10 05:05:00,51.3,47.8,30.06,NW,315,0.0,0.0,88,0.00,,,0.00,WUHU21623XXSP,2013-08-10 10:05:00,
2013-08-10 05:10:00,52.0,48.5,30.06,NW,315,0.0,0.0,88,0.00,,,0.00,WUHU21623XXSP,2013-08-10 10:10:00,
2013-08-10 05:15:00,51.8,48.3,30.06,North,0,0.0,0.0,88,0.00,,,0.00,WUHU21623XXSP,2013-08-10 10:15:00,
2013-08-10 05:20:00,52.0,48.5,30.06,NW,315,0.0,0.0,88,0.00,,,0.00,WUHU21623XXSP,2013-08-10 10:20:00,
2013-08-10 05:25:00,51.6,48.1,30.06,NW,315,0.0,0.0,88,0.00,,,0.00,WUHU21623XXSP,2013-08-10 10:25:00,
2013-08-10 05:30:00,51.6,48.1,30.06,NW,315,0.0,0.0,88,0.00,,,0.00,WUHU21623XXSP,2013-08-10 10:30:00,
2013-08-10 05:35:00,51.4,47.9,30.06,NW,315,0.0,0.0,88,0.00,,,0.00,WUHU21623XXSP,2013-08-10 10:35:00,
2013-08-10 05:40:00,51.1,47.6,30.06,NW,315,0.0,0.0,88,0.00,,,0.00,WUHU21623XXSP,2013-08-10 10:40:00,
2013-08-10 05:45:00,50.7,47.2,30.06,NW,315,0.0,0.0,88,0.00,,,0.00,WUHU21623XXSP,2013-08-10 10:45:00,
2013-08-10 05:50:00,50.4,46.9,30.07,NW,315,0.0,0.0,88,0.00,,,0.00,WUHU21623XXSP,2013-08-10 10:50:00,
2013-08-10 05:55:00,50.7,47.2,30.07,NW,315,0.0,0.0,88,0.00,,,0.00,WUHU21623XXSP,2013-08-10 10:55:00,
2013-08-10 06:00:00,50.7,47.2,30.07,NW,315,0.0,0.0,88,0.00,,,0.00,WUHU21623XXSP,2013-08-10 11:00:00,
2013-08-10 06:05:00,50.9,47.4,30.07,NW,315,0.0,0.0,88,0.00,,,0.00,WUHU21623XXSP,2013-08-10 11:05:00,
2013-08-10 06:10:00,50.9,47.4,30.07,NW,315,0.0,0.0,88,0.00,,,0.00,WUHU21623XXSP,2013-08-10 11:10:00,
2013-08-10 06:15:00,50.7,47.2,30.07,NW,315,0.0,0.0,88,0.00,,,0.00,WUHU21623XXSP,2013-08-10 11:15:00,
2013-08-10 06:20:00,50.5,47.0,30.07,NW,315,0.0,0.0,88,0.00,,,0.00,WUHU21623XXSP,2013-08-10 11:20:00,
2013-08-10 06:25:00,51.1,47.6,30.07,North,0,0.0,0.0,88,0.00,,,0.00,WUHU21623XXSP,2013-08-10 11:25:00,
2013-08-10 06:30:00,51.1,47.6,30.07,NW,315,0.0,0.0,88,0.00,,,0.00,WUHU21623XXSP,2013-08-10 11:30:00,
2013-08-10 06:35:00,51.1,47.6,30.08,NW,315,0.0,0.0,88,0.00,,,0.00,WUHU21623XXSP,2013-08-10 11:35:00,
2013-08-10 06:40:00,51.1,47.6,30.08,NW,315,0.0,0.0,88,0.00,,,0.00,WUHU21623XXSP,2013-08-10 11:40:00,
2013-08-10 06:45:00,50.9,47.4,30.08,NW,315,0.0,0.0,88,0.00,,,0.00,WUHU21623XXSP,2013-08-10 11:45:00,
2013-08-10 06:50:00,50.9,47.7,30.08,NW,315,0.0,0.0,89,0.00,,,0.00,WUHU21623XXSP,2013-08-10 11:50:00,
2013-08-10 06:55:00,50.7,47.5,30.08,NW,315,0.0,0.0,89,0.00,,,0.00,WUHU21623XXSP,2013-08-10 11:55:00,
2013-08-10 07:00:00,50.7,47.5,30.09,NW,315,0.0,0.0,89,0.00,,,0.00,WUHU21623XXSP,2013-08-10 12:00:00,
2013-08-10 07:05:00,50.9,47.7,30.09,NW,315,0.0,0.0,89,0.00,,,0.00,WUHU21623XXSP,2013-08-10 12:05:00,
2013-08-10 07:10:00,51.4,48.3,30.09,NW,315,0.0,0.0,89,0.00,,,0.00,WUHU21623XXSP,2013-08-10 12:10:00,
2013-08-10 07:15:00,51.4,48.2,30.09,North,0,0.0,0.0,89,0.00,,,0.00,WUHU21623XXSP,2013-08-10 12:15:00,
2013-08-10 07:20:00,51.6,48.4,30.09,NW,315,0.0,0.0,89,0.00,,,0.00,WUHU21623XXSP,2013-08-10 12:20:00,
2013-08-10 07:25:00,52.2,49.0,30.09,NW,315,0.0,0.0,89,0.00,,,0.00,WUHU21623XXSP,2013-08-10 12:25:00,
2013-08-10 07:30:00,52.3,49.2,30.09,NW,315,0.0,0.0,89,0.00,,,0.00,WUHU21623XXSP,2013-08-10 12:30:00,
2013-08-10 07:35:00,52.3,49.2,30.09,NW,315,0.0,0.0,89,0.00,,,0.00,WUHU21623XXSP,2013-08-10 12:35:00,
2013-08-10 07:40:00,52.5,49.3,30.09,NW,315,0.0,0.0,89,0.00,,,0.00,WUHU21623XXSP,2013-08-10 12:40:00,
2013-08-10 07:45:00,52.9,49.7,30.09,NW,315,0.0,0.0,89,0.00,,,0.00,WUHU21623XXSP,2013-08-10 12:45:00,
2013-08-10 07:50:00,53.4,50.2,30.09,NW,315,0.0,0.0,89,0.00,,,0.00,WUHU21623XXSP,2013-08-10 12:50:00,
2013-08-10 07:55:00,53.8,50.6,30.09,NW,315,0.0,0.0,89,0.00,,,0.00,WUHU21623XXSP,2013-08-10 12:55:00,
2013-08-10 08:00:00,54.1,50.9,30.09,South,180,0.0,0.0,89,0.00,,,0.00,WUHU21623XXSP,2013-08-10 13:00:00,
2013-08-10 08:05:00,54.7,51.5,30.09,NW,315,2.2,2.2,89,0.00,,,0.00,WUHU21623XXSP,2013-08-10 13:05:00,
2013-08-10 08:10:00,55.2,52.0,30.09,NW,315,0.0,3.6,89,0.00,,,0.00,WUHU21623XXSP,2013-08-10 13:10:00,
2013-08-10 08:15:00,55.2,51.7,30.09,NW,315,0.0,3.6,88,0.00,,,0.00,WUHU21623XXSP,2013-08-10 13:15:00,
2013-08-10 08:20:00,55.2,51.7,30.09,NW,315,0.0,0.0,88,0.00,,,0.00,WUHU21623XXSP,2013-08-10 13:20:00,
2013-08-10 08:25:00,55.6,51.8,30.09,NW,315,0.1,1.6,87,0.00,,,0.00,WUHU21623XXSP,2013-08-10 13:25:00,
2013-08-10 08:30:00,55.9,52.1,30.09,NW,315,0.0,1.6,87,0.00,,,0.00,WUHU21623XXSP,2013-08-10 13:30:00,
2013-08-10 08:35:00,56.3,52.1,30.09,NW,315,0.0,2.5,86,0.00,,,0.00,WUHU21623XXSP,2013-08-10 13:35:00,
2013-08-10 08:40:00,56.8,52.7,30.09,WSW,247,0.0,2.5,86,0.00,,,0.00,WUHU21623XXSP,2013-08-10 13:40:00,
2013-08-10 08:45:00,57.4,52.9,30.09,WSW,247,0.0,1.3,85,0.00,,,0.00,WUHU21623XXSP,2013-08-10 13:45:00,
2013-08-10 08:50:00,58.3,53.5,30.08,WSW,247,0.0,0.0,84,0.00,,,0.00,WUHU21623XXSP,2013-08-10 13:50:00,
2013-08-10 08:55:00,59.5,54.4,30.08,NW,315,0.0,0.0,83,0.00,,,0.00,WUHU21623XXSP,2013-08-10 13:55:00,
2013-08-10 09:00:00,60.8,55.0,30.08,NW,315,0.0,0.0,81,0.00,,,0.00,WUHU21623XXSP,2013-08-10 14:00:00,
2013-08-10 09:05:00,61.7,55.1,30.08,NW,315,0.0,0.0,79,0.00,,,0.00,WUHU21623XXSP,2013-08-10 14:05:00,
2013-08-10 09:10:00,62.1,54.7,30.08,NW,315,0.0,0.0,77,0.00,,,0.00,WUHU21623XXSP,2013-08-10 14:10:00,
2013-08-10 09:15:00,61.9,54.9,30.08,NW,315,0.0,0.0,78,0.00,,,0.00,WUHU21623XXSP,2013-08-10 14:15:00,
2013-08-10 09:20:00,62.6,55.2,30.09,WNW,292,0.0,0.0,77,0.00,,,0.00,WUHU21623XXSP,2013-08-10 14:20:00,
2013-08-10 09:25:00,64.0,55.2,30.08,NW,315,0.0,0.0,73,0.00,,,0.00,WUHU21623XXSP,2013-08-10 14:25:00,
2013-08-10 09:30:00,64.6,55.7,30.08,West,270,0.0,0.0,73,0.00,,,0.00,WUHU21623XXSP,2013-08-10 14:30:00,
2013-08-10 09:35:00,64.0,55.6,30.08,NW,315,0.0,0.0,74,0.00,,,0.00,WUHU21623XXSP,2013-08-10 14:35:00,
2013-08-10 09:40:00,64.2,55.4,30.08,NW,315,0.0,0.0,73,0.00,,,0.00,WUHU21623XXSP,2013-08-10 14:40:00,
2013-08-10 09:45:00,65.3,55.3,30.08,NW,315,0.0,0.0,70,0.00,,,0.00,WUHU21623XXSP,2013-08-10 14:45:00,
2013-08-10 09:50:00,66.7,55.8,30.08,West,270,0.0,0.0,68,0.00,,,0.00,WUHU21623XXSP,2013-08-10 14:50:00,
2013-08-10 09:55:00,67.3,55.5,30.08,NW,315,0.0,0.0,66,0.00,,,0.00,WUHU21623XXSP,2013-08-10 14:55:00,
2013-08-10 10:00:00,65.5,55.0,30.08,West,270,0.0,0.0,69,0.00,,,0.00,WUHU21623XXSP,2013-08-10 15:00:00,
2013-08-10 10:05:00,63.7,55.2,30.08,NW,315,0.0,0.0,74,0.00,,,0.00,WUHU21623XXSP,2013-08-10 15:05:00,
2013-08-10 10:10:00,66.0,55.5,30.08,West,270,0.0,0.0,69,0.00,,,0.00,WUHU21623XXSP,2013-08-10 15:10:00,
2013-08-10 10:15:00,67.8,56.0,30.08,North,0,0.0,0.0,66,0.00,,,0.00,WUHU21623XXSP,2013-08-10 15:15:00,
2013-08-10 10:20:00,66.7,54.6,30.08,NW,315,0.0,0.0,65,0.00,,,0.00,WUHU21623XXSP,2013-08-10 15:20:00,
2013-08-10 10:25:00,64.6,54.2,30.07,NW,315,1.1,6.3,69,0.00,,,0.00,WUHU21623XXSP,2013-08-10 15:25:00,
2013-08-10 10:30:00,63.7,53.3,30.07,NNW,337,0.0,7.4,69,0.00,,,0.00,WUHU21623XXSP,2013-08-10 15:30:00,
2013-08-10 10:35:00,66.0,53.9,30.07,NW,315,0.0,7.4,65,0.00,,,0.00,WUHU21623XXSP,2013-08-10 15:35:00,
2013-08-10 10:40:00,67.8,55.1,30.07,WNW,292,0.0,4.3,64,0.00,,,0.00,WUHU21623XXSP,2013-08-10 15:40:00,
2013-08-10 10:45:00,66.4,53.8,30.07,West,270,0.0,2.2,64,0.00,,,0.00,WUHU21623XXSP,2013-08-10 15:45:00,
2013-08-10 10:50:00,66.9,54.1,30.07,WNW,292,3.4,6.0,64,0.00,,,0.00,WUHU21623XXSP,2013-08-10 15:50:00,
2013-08-10 10:55:00,69.1,53.7,30.07,NW,315,2.5,7.2,58,0.00,,,0.00,WUHU21623XXSP,2013-08-10 15:55:00,
2013-08-10 11:00:00,68.0,53.6,30.07,NW,315,1.6,7.2,60,0.00,,,0.00,WUHU21623XXSP,2013-08-10 16:00:00,
2013-08-10 11:05:00,67.3,54.2,30.07,West,270,0.0,7.2,63,0.00,,,0.00,WUHU21623XXSP,2013-08-10 16:05:00,
2013-08-10 11:10:00,67.3,54.2,30.07,WNW,292,1.8,6.9,63,0.00,,,0.00,WUHU21623XXSP,2013-08-10 16:10:00,
2013-08-10 11:15:00,66.0,53.5,30.08,WSW,247,1.3,6.7,64,0.00,,,0.00,WUHU21623XXSP,2013-08-10 16:15:00,
2013-08-10 11:20:00,66.0,53.0,30.07,NW,315,0.0,5.8,63,0.00,,,0.00,WUHU21623XXSP,2013-08-10 16:20:00,
2013-08-10 11:25:00,65.3,54.5,30.08,SSW,202,1.1,5.8,68,0.00,,,0.00,WUHU21623XXSP,2013-08-10 16:25:00,
2013-08-10 11:30:00,66.7,55.4,30.08,NW,315,0.0,4.9,67,0.00,,,0.00,WUHU21623XXSP,2013-08-10 16:30:00,
2013-08-10 11:35:00,68.5,55.0,30.08,NW,315,4.5,4.9,62,0.00,,,0.00,WUHU21623XXSP,2013-08-10 16:35:00,
2013-08-10 11:40:00,70.0,55.6,30.08,WNW,292,0.0,6.0,60,0.00,,,0.00,WUHU21623XXSP,2013-08-10 16:40:00,
2013-08-10 11:45:00,70.0,53.5,30.08,WSW,247,0.0,8.3,56,0.00,,,0.00,WUHU21623XXSP,2013-08-10 16:45:00,
2013-08-10 11:50:00,67.8,53.4,30.08,NW,315,0.0,8.5,60,0.00,,,0.00,WUHU21623XXSP,2013-08-10 16:50:00,
2013-08-10 11:55:00,67.8,55.4,30.08,NNW,337,2.0,8.5,64,0.00,,,0.00,WUHU21623XXSP,2013-08-10 16:55:00,
2013-08-10 12:00:00,69.6,53.7,30.08,NW,315,0.0,7.6,57,0.00,,,0.00,WUHU21623XXSP,2013-08-10 17:00:00,
2013-08-10 12:05:00,68.0,54.0,30.07,NW,315,0.0,7.4,61,0.00,,,0.00,WUHU21623XXSP,2013-08-10 17:05:00,
2013-08-10 12:10:00,67.1,54.0,30.08,NNW,337,2.0,6.9,63,0.00,,,0.00,WUHU21623XXSP,2013-08-10 17:10:00,
2013-08-10 12:15:00,66.0,54.3,30.07,NW,315,2.5,8.3,66,0.00,,,0.00,WUHU21623XXSP,2013-08-10 17:15:00,
2013-08-10 12:20:00,67.5,54.8,30.07,NW,315,0.0,8.3,64,0.00,,,0.00,WUHU21623XXSP,2013-08-10 17:20:00,
2013-08-10 12:25:00,67.8,53.4,30.07,West,270,3.4,8.3,60,0.00,,,0.00,WUHU21623XXSP,2013-08-10 17:25:00,
2013-08-10 12:30:00,69.6,55.2,30.07,NNW,337,0.4,8.3,60,0.00,,,0.00,WUHU21623XXSP,2013-08-10 17:30:00,
2013-08-10 12:35:00,70.3,53.9,30.07,NW,315,0.0,7.6,56,0.00,,,0.00,WUHU21623XXSP,2013-08-10 17:35:00,
2013-08-10 12:40:00,69.4,55.0,30.07,West,270,1.3,6.7,60,0.00,,,0.00,WUHU21623XXSP,2013-08-10 17:40:00,
2013-08-10 12:45:00,69.4,54.5,30.07,SW,225,1.8,3.6,59,0.00,,,0.00,WUHU21623XXSP,2013-08-10 17:45:00,
2013-08-10 12:50:00,71.1,54.5,30.07,NW,315,4.3,4.9,56,0.00,,,0.00,WUHU21623XXSP,2013-08-10 17:50:00,
2013-08-10 12:55:00,70.9,53.3,30.07,WNW,292,2.5,5.4,54,0.00,,,0.00,WUHU21623XXSP,2013-08-10 17:55:00,
2013-08-10 13:00:00,71.2,54.7,30.07,WNW,292,3.6,5.6,56,0.00,,,0.00,WUHU21623XXSP,2013-08-10 18:00:00,
2013-08-10 13:05:00,71.2,54.2,30.07,WNW,292,2.7,7.4,55,0.00,,,0.00,WUHU21623XXSP,2013-08-10 18:05:00,
2013-08-10 13:10:00,70.5,53.0,30.06,SSE,157,6.0,7.4,54,0.00,,,0.00,WUHU21623XXSP,2013-08-10 18:10:00,
2013-08-10 13:15:00,71.2,53.7,30.06,NW,315,0.0,6.0,54,0.00,,,0.00,WUHU21623XXSP,2013-08-10 18:15:00,
2013-08-10 13:20:00,71.8,54.2,30.07,WNW,292,0.0,7.8,54,0.00,,,0.00,WUHU21623XXSP,2013-08-10 18:20:00,
2013-08-10 13:25:00,72.0,54.8,30.06,WNW,292,0.0,7.8,55,0.00,,,0.00,WUHU21623XXSP,2013-08-10 18:25:00,
2013-08-10 13:30:00,70.0,53.5,30.07,NW,315,8.3,8.3,56,0.00,,,0.00,WUHU21623XXSP,2013-08-10 18:30:00,
2013-08-10 13:35:00,68.7,53.8,30.06,West,270,0.9,8.3,59,0.00,,,0.00,WUHU21623XXSP,2013-08-10 18:35:00,
2013-08-10 13:40:00,70.0,52.5,30.06,WSW,247,0.0,7.2,54,0.00,,,0.00,WUHU21623XXSP,2013-08-10 18:40:00,
2013-08-10 13:45:00,70.9,53.3,30.06,WSW,247,4.0,8.3,54,0.00,,,0.00,WUHU21623XXSP,2013-08-10 18:45:00,
2013-08-10 13:50:00,71.2,53.7,30.06,NW,315,6.0,8.3,54,0.00,,,0.00,WUHU21623XXSP,2013-08-10 18:50:00,
2013-08-10 13:55:00,71.2,53.2,30.06,West,270,2.2,7.2,53,0.00,,,0.00,WUHU21623XXSP,2013-08-10 18:55:00,
2013-08-10 14:00:00,71.8,52.6,30.06,NW,315,4.7,7.6,51,0.00,,,0.00,WUHU21623XXSP,2013-08-10 19:00:00,
2013-08-10 14:05:00,71.2,53.2,30.06,NW,315,0.0,7.6,53,0.00,,,0.00,WUHU21623XXSP,2013-08-10 19:05:00,
2013-08-10 14:10:00,70.5,53.0,30.06,WNW,292,0.0,5.1,54,0.00,,,0.00,WUHU21623XXSP,2013-08-10 19:10:00,
2013-08-10 14:15:00,70.2,53.2,30.06,NW,315,0.0,8.9,55,0.00,,,0.00,WUHU21623XXSP,2013-08-10 19:15:00,
2013-08-10 14:20:00,70.2,54.2,30.06,SW,225,2.0,8.9,57,0.00,,,0.00,WUHU21623XXSP,2013-08-10 19:20:00,
2013-08-10 14:21:00,70.2,52.7,30.06,SW,225,2.0,8.9,54,0.00,,,0.00,WUHU21623XXSP,2013-08-10 19:21:00,
2013-08-10 14:26:00,70.5,52.5,30.06,West,270,3.1,4.3,53,0.00,,,0.00,WUHU21623XXSP,2013-08-10 19:26:00,
2013-08-10 14:31:00,70.0,53.5,30.06,West,270,2.5,6.3,56,0.00,,,0.00,WUHU21623XXSP,2013-08-10 19:31:00,
2013-08-10 14:36:00,70.5,53.0,30.06,West,270,0.0,6.3,54,0.00,,,0.00,WUHU21623XXSP,2013-08-10 19:36:00,
2013-08-10 14:41:00,71.2,52.7,30.05,West,270,2.9,7.4,52,0.00,,,0.00,WUHU21623XXSP,2013-08-10 19:41:00,
2013-08-10 14:46:00,72.1,54.0,30.05,North,0,0.0,7.4,53,0.00,,,0.00,WUHU21623XXSP,2013-08-10 19:46:00,
2013-08-10 14:51:00,72.7,54.0,30.05,NW,315,2.2,8.5,52,0.00,,,0.00,WUHU21623XXSP,2013-08-10 19:51:00,
2013-08-10 14:56:00,72.5,53.3,30.05,WNW,292,0.0,8.5,51,0.00,,,0.00,WUHU21623XXSP,2013-08-10 19:56:00,
2013-08-10 15:01:00,73.2,54.4,30.05,NNW,337,5.4,5.8,52,0.00,,,0.00,WUHU21623XXSP,2013-08-10 20:01:00,
2013-08-10 15:06:00,73.9,54.6,30.05,SW,225,2.2,7.6,51,0.00,,,0.00,WUHU21623XXSP,2013-08-10 20:06:00,
2013-08-10 15:11:00,73.9,54.1,30.05,NW,315,7.2,7.6,50,0.00,,,0.00,WUHU21623XXSP,2013-08-10 20:11:00,
2013-08-10 15:16:00,73.9,54.6,30.05,WSW,247,4.3,7.2,51,0.00,,,0.00,WUHU21623XXSP,2013-08-10 20:16:00,
2013-08-10 15:21:00,73.4,53.6,30.05,WSW,247,2.2,8.3,51,0.00,,,0.00,WUHU21623XXSP,2013-08-10 20:21:00,
2013-08-10 15:26:00,73.0,52.7,30.05,WSW,247,1.3,8.3,49,0.00,,,0.00,WUHU21623XXSP,2013-08-10 20:26:00,
2013-08-10 15:31:00,73.2,52.8,30.04,WSW,247,0.0,5.6,49,0.00,,,0.00,WUHU21623XXSP,2013-08-10 20:31:00,
2013-08-10 15:36:00,73.2,52.3,30.04,WSW,247,0.0,5.6,48,0.00,,,0.00,WUHU21623XXSP,2013-08-10 20:36:00,
2013-08-10 15:41:00,73.9,54.1,30.04,WSW,247,3.6,6.7,50,0.00,,,0.00,WUHU21623XXSP,2013-08-10 20:41:00,
2013-08-10 15:46:00,73.2,53.9,30.04,WSW,247,0.0,6.7,51,0.00,,,0.00,WUHU21623XXSP,2013-08-10 20:46:00,
2013-08-10 15:51:00,73.6,52.0,30.04,WSW,247,2.2,5.6,47,0.00,,,0.00,WUHU21623XXSP,2013-08-10 20:51:00,
2013-08-10 15:56:00,73.9,52.9,30.04,WSW,247,1.3,7.2,48,0.00,,,0.00,WUHU21623XXSP,2013-08-10 20:56:00,
2013-08-10 16:01:00,73.2,52.8,30.03,WSW,247,0.9,7.2,49,0.00,,,0.00,WUHU21623XXSP,2013-08-10 21:01:00,
2013-08-10 16:06:00,73.8,52.8,30.04,WSW,247,2.5,7.2,48,0.00,,,0.00,WUHU21623XXSP,2013-08-10 21:06:00,
2013-08-10 16:11:00,73.6,53.8,30.04,NNE,22,4.0,7.2,50,0.00,,,0.00,WUHU21623XXSP,2013-08-10 21:11:00,
2013-08-10 16:16:00,73.6,52.0,30.04,West,270,3.1,6.9,47,0.00,,,0.00,WUHU21623XXSP,2013-08-10 21:16:00,
2013-08-10 16:21:00,73.6,53.2,30.04,West,270,0.0,5.6,49,0.00,,,0.00,WUHU21623XXSP,2013-08-10 21:21:00,
2013-08-10 16:26:00,73.0,52.1,30.03,NW,315,0.7,7.4,48,0.00,,,0.00,WUHU21623XXSP,2013-08-10 21:26:00,
2013-08-10 16:31:00,73.4,53.0,30.03,NNW,337,2.5,7.4,49,0.00,,,0.00,WUHU21623XXSP,2013-08-10 21:31:00,
2013-08-10 16:36:00,73.6,52.0,30.03,NNW,337,1.8,6.9,47,0.00,,,0.00,WUHU21623XXSP,2013-08-10 21:36:00,
2013-08-10 16:41:00,73.6,54.3,30.03,WNW,292,0.7,6.9,51,0.00,,,0.00,WUHU21623XXSP,2013-08-10 21:41:00,
2013-08-10 16:46:00,73.2,52.3,30.03,WSW,247,0.0,6.3,48,0.00,,,0.00,WUHU21623XXSP,2013-08-10 21:46:00,
2013-08-10 16:51:00,73.0,51.5,30.03,WSW,247,0.0,3.8,47,0.00,,,0.00,WUHU21623XXSP,2013-08-10 21:51:00,
2013-08-10 16:56:00,72.7,50.6,30.03,WSW,247,0.0,3.6,46,0.00,,,0.00,WUHU21623XXSP,2013-08-10 21:56:00,
2013-08-10 17:01:00,72.7,51.8,30.02,WSW,247,0.0,4.5,48,0.00,,,0.00,WUHU21623XXSP,2013-08-10 22:01:00,
2013-08-10 17:06:00,72.7,51.2,30.02,WSW,247,0.7,4.5,47,0.00,,,0.00,WUHU21623XXSP,2013-08-10 22:06:00,
2013-08-10 17:11:00,73.0,53.3,30.02,WSW,247,0.9,5.8,50,0.00,,,0.00,WUHU21623XXSP,2013-08-10 22:11:00,
2013-08-10 17:16:00,72.5,51.0,30.02,WSW,247,3.6,8.3,47,0.00,,,0.00,WUHU21623XXSP,2013-08-10 22:16:00,
2013-08-10 17:21:00,72.3,52.0,30.02,WSW,247,0.7,8.3,49,0.00,,,0.00,WUHU21623XXSP,2013-08-10 22:21:00,
2013-08-10 17:26:00,72.3,52.0,30.02,WSW,247,0.0,7.2,49,0.00,,,0.00,WUHU21623XXSP,2013-08-10 22:26:00,
2013-08-10 17:31:00,72.3,52.0,30.02,WSW,247,0.0,7.2,49,0.00,,,0.00,WUHU21623XXSP,2013-08-10 22:31:00,
2013-08-10 17:36:00,72.1,51.3,30.02,WSW,247,0.7,5.8,48,0.00,,,0.00,WUHU21623XXSP,2013-08-10 22:36:00,
2013-08-10 17:41:00,72.0,52.3,30.02,WSW,247,0.0,5.6,50,0.00,,,0.00,WUHU21623XXSP,2013-08-10 22:41:00,
2013-08-10 17:46:00,71.8,51.5,30.01,WSW,247,2.5,7.8,49,0.00,,,0.00,WUHU21623XXSP,2013-08-10 22:46:00,
2013-08-10 17:51:00,71.4,52.3,30.01,WSW,247,0.0,7.8,51,0.00,,,0.00,WUHU21623XXSP,2013-08-10 22:51:00,
2013-08-10 17:56:00,71.2,52.2,30.01,NNW,337,0.0,6.0,51,0.00,,,0.00,WUHU21623XXSP,2013-08-10 22:56:00,
2013-08-10 18:01:00,71.1,51.5,30.01,NW,315,0.0,6.3,50,0.00,,,0.00,WUHU21623XXSP,2013-08-10 23:01:00,
2013-08-10 18:06:00,70.7,51.2,30.01,NW,315,0.0,6.3,50,0.00,,,0.00,WUHU21623XXSP,2013-08-10 23:06:00,
2013-08-10 18:11:00,70.3,50.8,30.01,NNW,337,4.9,4.9,50,0.00,,,0.00,WUHU21623XXSP,2013-08-10 23:11:00,
2013-08-10 18:16:00,70.3,51.4,30.01,NW,315,3.4,8.1,51,0.00,,,0.00,WUHU21623XXSP,2013-08-10 23:16:00,
2013-08-10 18:21:00,70.0,51.5,30.01,NW,315,0.0,8.1,52,0.00,,,0.00,WUHU21623XXSP,2013-08-10 23:21:00,
2013-08-10 18:26:00,69.6,52.7,30.01,NW,315,1.6,6.3,55,0.00,,,0.00,WUHU21623XXSP,2013-08-10 23:26:00,
2013-08-10 18:31:00,69.3,51.9,30.01,West,270,0.0,6.3,54,0.00,,,0.00,WUHU21623XXSP,2013-08-10 23:31:00,
2013-08-10 18:36:00,69.1,51.7,30.01,West,270,0.0,3.4,54,0.00,,,0.00,WUHU21623XXSP,2013-08-10 23:36:00,
2013-08-10 18:41:00,69.1,51.7,30.01,SSW,202,0.0,3.4,54,0.00,,,0.00,WUHU21623XXSP,2013-08-10 23:41:00,
2013-08-10 18:46:00,69.1,51.9,30.01,West,276,0.4,3.4,54,0.00,,,0.00,WUHU21623XXSP,2013-08-10 23:46:00,
2013-08-10 18:51:00,68.7,52.0,30.01,West,260,0.1,2.2,55,0.00,,,0.00,WUHU21623XXSP,2013-08-10 23:51:00,
2013-08-10 18:56:00,68.9,52.0,30.01,WNW,292,0.0,1.3,55,0.00,,,0.00,WUHU21623XXSP,2013-08-10 23:56:00,
2013-08-10 19:01:00,68.7,51.4,30.01,NW,315,0.7,3.4,54,0.00,,,0.00,WUHU21623XXSP,2013-08-11 00:01:00,
2013-08-10 19:06:00,68.5,51.7,30.01,NW,315,0.0,3.4,55,0.00,,,0.00,WUHU21623XXSP,2013-08-11 00:06:00,
2013-08-10 19:11:00,68.5,52.2,30.01,NNW,337,0.0,6.5,56,0.00,,,0.00,WUHU21623XXSP,2013-08-11 00:11:00,
2013-08-10 19:16:00,67.8,52.0,30.01,NNW,337,0.0,6.5,57,0.00,,,0.00,WUHU21623XXSP,2013-08-11 00:16:00,
2013-08-10 19:21:00,67.8,52.5,30.01,NNW,337,0.0,1.8,58,0.00,,,0.00,WUHU21623XXSP,2013-08-11 00:21:00,
2013-08-10 19:26:00,67.5,52.1,30.02,NNW,337,0.0,1.8,58,0.00,,,0.00,WUHU21623XXSP,2013-08-11 00:26:00,
2013-08-10 19:31:00,67.3,52.5,30.01,NNW,337,0.0,1.6,59,0.00,,,0.00,WUHU21623XXSP,2013-08-11 00:31:00,
2013-08-10 19:36:00,67.1,52.8,30.01,NNW,337,0.0,1.6,60,0.00,,,0.00,WUHU21623XXSP,2013-08-11 00:36:00,
2013-08-10 19:41:00,66.2,52.0,30.01,NNW,337,0.0,0.0,60,0.00,,,0.00,WUHU21623XXSP,2013-08-11 00:41:00,
2013-08-10 19:46:00,65.5,52.1,30.01,NNW,337,0.0,0.0,62,0.00,,,0.00,WUHU21623XXSP,2013-08-11 00:46:00,
2013-08-10 19:51:00,64.6,53.4,30.01,NNW,337,0.0,0.0,67,0.00,,,0.00,WUHU21623XXSP,2013-08-11 00:51:00,
2013-08-10 19:56:00,64.0,53.7,30.01,NNW,337,0.0,0.0,69,0.00,,,0.00,WUHU21623XXSP,2013-08-11 00:56:00,
2013-08-10 20:01:00,63.5,52.8,30.01,NNW,337,0.0,0.0,68,0.00,,,0.00,WUHU21623XXSP,2013-08-11 01:01:00,
2013-08-10 20:06:00,63.1,52.8,30.01,NNW,337,0.0,0.0,69,0.00,,,0.00,WUHU21623XXSP,2013-08-11 01:06:00,
2013-08-10 20:11:00,63.1,52.8,30.01,NNW,337,0.0,0.0,69,0.00,,,0.00,WUHU21623XXSP,2013-08-11 01:11:00,
2013-08-10 20:16:00,62.8,52.9,30.00,NNW,337,0.0,0.0,70,0.00,,,0.00,WUHU21623XXSP,2013-08-11 01:16:00,
2013-08-10 20:21:00,61.9,52.4,30.00,NNW,337,0.0,0.0,71,0.00,,,0.00,WUHU21623XXSP,2013-08-11 01:21:00,
2013-08-10 20:26:00,61.5,52.8,30.00,NNW,337,0.0,0.0,73,0.00,,,0.00,WUHU21623XXSP,2013-08-11 01:26:00,
2013-08-10 20:31:00,61.9,53.1,30.00,NNW,337,0.0,0.0,73,0.00,,,0.00,WUHU21623XXSP,2013-08-11 01:31:00,
2013-08-10 20:36:00,61.3,52.6,30.00,NNW,337,0.0,0.0,73,0.00,,,0.00,WUHU21623XXSP,2013-08-11 01:36:00,
2013-08-10 20:41:00,60.8,52.2,30.00,NNW,337,0.0,0.0,73,0.00,,,0.00,WUHU21623XXSP,2013-08-11 01:41:00,
2013-08-10 20:46:00,60.6,52.0,30.00,NNW,337,0.0,0.0,73,0.00,,,0.00,WUHU21623XXSP,2013-08-11 01:46:00,
2013-08-10 20:51:00,61.0,52.3,30.00,NNW,337,0.0,0.0,73,0.00,,,0.00,WUHU21623XXSP,2013-08-11 01:51:00,
2013-08-10 20:56:00,60.1,52.2,30.00,NNW,337,0.0,0.0,75,0.00,,,0.00,WUHU21623XXSP,2013-08-11 01:56:00,
2013-08-10 21:01:00,59.5,51.6,30.00,NNW,337,0.0,0.0,75,0.00,,,0.00,WUHU21623XXSP,2013-08-11 02:01:00,
2013-08-10 21:06:00,59.7,52.5,29.99,NNW,337,0.0,0.0,77,0.00,,,0.00,WUHU21623XXSP,2013-08-11 02:06:00,
2013-08-10 21:11:00,59.7,53.6,29.99,NNW,337,0.0,0.0,80,0.00,,,0.00,WUHU21623XXSP,2013-08-11 02:11:00,
2013-08-10 21:16:00,59.5,53.4,30.00,NNW,337,0.0,0.0,80,0.00,,,0.00,WUHU21623XXSP,2013-08-11 02:16:00,
2013-08-10 21:21:00,59.5,52.3,30.00,NNW,337,0.0,0.0,77,0.00,,,0.00,WUHU21623XXSP,2013-08-11 02:21:00,
2013-08-10 21:26:00,59.7,51.8,30.00,NNW,337,0.0,0.0,75,0.00,,,0.00,WUHU21623XXSP,2013-08-11 02:26:00,
2013-08-10 21:31:00,59.7,52.2,30.00,NNW,337,0.0,0.0,76,0.00,,,0.00,WUHU21623XXSP,2013-08-11 02:31:00,
2013-08-10 21:36:00,59.2,51.6,30.00,NNW,337,0.0,0.0,76,0.00,,,0.00,WUHU21623XXSP,2013-08-11 02:36:00,
2013-08-10 21:41:00,58.8,51.6,30.00,NNW,337,0.0,0.0,77,0.00,,,0.00,WUHU21623XXSP,2013-08-11 02:41:00,
2013-08-10 21:46:00,58.3,51.5,30.00,NNW,337,0.0,2.0,78,0.36,,,0.36,WUHU21623XXSP,2013-08-11 02:46:00,
2013-08-10 21:51:00,57.9,51.4,30.00,NNW,337,0.0,2.0,79,0.36,,,0.36,WUHU21623XXSP,2013-08-11 02:51:00,
2013-08-10 21:56:00,57.9,51.8,30.00,NNW,337,0.0,0.0,80,0.36,,,0.36,WUHU21623XXSP,2013-08-11 02:56:00,
2013-08-10 22:01:00,57.9,52.8,30.00,NNW,337,0.0,0.0,83,0.36,,,0.36,WUHU21623XXSP,2013-08-11 03:01:00,
2013-08-10 22:06:00,58.1,53.3,30.00,NNW,337,0.0,0.0,84,0.36,,,0.36,WUHU21623XXSP,2013-08-11 03:06:00,
2013-08-10 22:11:00,57.9,53.1,30.00,NNW,337,0.0,0.0,84,0.36,,,0.36,WUHU21623XXSP,2013-08-11 03:11:00,
2013-08-10 22:17:00,57.9,53.1,30.00,NNW,337,0.0,0.0,84,0.36,,,0.36,WUHU21623XXSP,2013-08-11 03:17:00,
2013-08-10 22:22:00,58.5,53.0,30.00,NNW,337,0.0,0.0,82,0.36,,,0.36,WUHU21623XXSP,2013-08-11 03:22:00,
2013-08-10 22:27:00,57.9,52.8,30.00,NNW,337,0.0,0.0,83,0.36,,,0.36,WUHU21623XXSP,2013-08-11 03:27:00,
2013-08-10 22:32:00,57.6,52.4,30.00,NNW,337,0.0,0.0,83,0.36,,,0.36,WUHU21623XXSP,2013-08-11 03:32:00,
2013-08-10 22:36:00,57.6,52.4,30.00,NNW,337,0.0,0.0,83,0.36,,,0.36,WUHU21623XXSP,2013-08-11 03:36:00,
2013-08-10 22:42:00,57.4,51.9,30.00,NNW,337,0.0,0.0,82,0.36,,,0.36,WUHU21623XXSP,2013-08-11 03:42:00,
2013-08-10 22:47:00,57.0,51.5,30.00,NNW,337,0.0,0.0,82,0.00,,,0.36,WUHU21623XXSP,2013-08-11 03:47:00,
2013-08-10 22:52:00,57.4,52.2,30.00,NNW,337,0.0,0.0,83,0.00,,,0.36,WUHU21623XXSP,2013-08-11 03:52:00,
2013-08-10 22:57:00,57.7,52.6,30.00,NNW,337,0.0,0.0,83,0.00,,,0.36,WUHU21623XXSP,2013-08-11 03:57:00,
2013-08-10 23:01:00,57.7,52.6,30.00,NNW,337,0.0,0.0,83,0.00,,,0.36,WUHU21623XXSP,2013-08-11 04:01:00,
2013-08-10 23:06:00,57.6,52.4,30.00,NNW,337,0.0,0.0,83,0.00,,,0.36,WUHU21623XXSP,2013-08-11 04:06:00,
2013-08-10 23:11:00,57.2,52.1,30.00,NNW,337,0.0,0.0,83,0.00,,,0.36,WUHU21623XXSP,2013-08-11 04:11:00,
2013-08-10 23:16:00,57.4,52.2,30.00,NNW,337,0.0,0.0,83,0.00,,,0.36,WUHU21623XXSP,2013-08-11 04:16:00,
2013-08-10 23:21:00,57.2,51.7,30.01,NNW,337,0.0,0.0,82,0.00,,,0.36,WUHU21623XXSP,2013-08-11 04:21:00,
2013-08-10 23:26:00,56.8,51.4,30.00,NNW,337,0.0,0.0,82,0.00,,,0.36,WUHU21623XXSP,2013-08-11 04:26:00,
2013-08-10 23:31:00,57.6,51.8,30.00,NNW,337,0.0,0.0,81,0.00,,,0.36,WUHU21623XXSP,2013-08-11 04:31:00,
2013-08-10 23:36:00,58.6,51.8,30.00,NNW,337,0.0,0.0,78,0.00,,,0.36,WUHU21623XXSP,2013-08-11 04:36:00,
2013-08-10 23:41:00,57.9,51.5,30.00,North,0,0.0,0.0,79,0.00,,,0.36,WUHU21623XXSP,2013-08-11 04:41:00,
2013-08-10 23:46:00,57.0,51.2,30.00,NNW,337,0.0,0.0,81,0.00,,,0.36,WUHU21623XXSP,2013-08-11 04:46:00,
2013-08-10 23:51:00,57.9,51.8,30.00,NNW,337,0.0,0.0,80,0.00,,,0.36,WUHU21623XXSP,2013-08-11 04:51:00,
2013-08-10 23:56:00,57.9,51.4,30.00,NNW,337,0.0,0.0,79,0.00,,,0.36,WUHU21623XXSP,2013-08-11 04:56:00,